Time;durP1;ratioP1;P1;durP2;ratioP2;P2;SDS_P1;SDS_P2;PMS_P1;PMS_P2;Temp;Humidity;BMP_temperature;BMP_pressure;BME280_temperature;BME280_humidity;BME280_pressure;Samples;Min_cycle;Max_cycle;Signal;HPM_P1;HPM_P2
2022/01/18 00:09:00;;;;;;;11.25;5.78;;;1.00;99.90;;;;;;20803716;22;20559;-76
2022/01/18 00:19:07;;;;;;;11.30;6.55;;;1.00;99.90;;;;;;20866809;28;20114;-76
2022/01/18 00:29:11;;;;;;;10.00;5.32;;;0.90;99.90;;;;;;20892037;28;20048;-77
2022/01/18 00:39:12;;;;;;;13.70;7.30;;;1.00;99.90;;;;;;20828468;28;20056;-77
2022/01/18 00:49:14;;;;;;;14.10;7.70;;;1.00;99.90;;;;;;20835112;28;20104;-76
2022/01/18 00:59:14;;;;;;;14.20;7.68;;;0.80;99.90;;;;;;20833432;28;20529;-76
2022/01/18 01:09:15;;;;;;;12.50;6.50;;;0.80;99.90;;;;;;20832298;28;20048;-76
2022/01/18 01:50:51;;;;;;;15.73;9.33;;;0.50;99.90;;;;;;20828220;28;20030;-76
2022/01/18 02:00:54;;;;;;;;;;;0.10;99.90;;;;;;20826939;28;20029;-76
2022/01/18 02:10:55;;;;;;;20.38;9.15;;;0.10;99.90;;;;;;20845281;28;19913;-76
2022/01/18 02:31:18;;;;;;;14.02;8.63;;;-0.10;99.90;;;;;;20834542;28;20021;-76
2022/01/18 02:41:30;;;;;;;13.88;7.63;;;-0.40;99.90;;;;;;20833770;28;20408;-77
2022/01/18 02:51:31;;;;;;;20.08;9.23;;;-0.40;99.90;;;;;;20832615;28;20033;-77
2022/01/18 03:11:52;;;;;;;17.25;8.32;;;-0.20;99.90;;;;;;20840189;28;20658;-77
2022/01/18 03:21:55;;;;;;;21.30;9.27;;;0.00;99.90;;;;;;20841518;28;20048;-77
2022/01/18 03:31:56;;;;;;;17.98;9.07;;;0.50;99.90;;;;;;20839111;28;20492;-76
2022/01/18 03:42:18;;;;;;;16.90;9.00;;;0.60;99.90;;;;;;20858378;28;20098;-77
2022/01/18 03:52:19;;;;;;;18.17;9.03;;;0.70;99.90;;;;;;20903979;28;20032;-77
2022/01/18 04:02:20;;;;;;;17.45;9.15;;;0.40;99.90;;;;;;20905323;28;20083;-76
2022/01/18 04:12:21;;;;;;;14.57;8.10;;;0.50;99.90;;;;;;20905932;28;20033;-77
2022/01/18 04:32:41;;;;;;;18.92;8.95;;;0.40;99.90;;;;;;20847898;28;20039;-76
2022/01/18 04:52:52;;;;;;;11.52;6.13;;;0.10;99.90;;;;;;20857994;28;20028;-77
2022/01/18 05:02:53;;;;;;;14.68;7.75;;;0.20;99.90;;;;;;20854899;28;20072;-77
2022/01/18 05:12:56;;;;;;;14.43;7.25;;;0.60;99.90;;;;;;20845906;28;20083;-77
2022/01/18 05:23:00;;;;;;;14.45;6.63;;;0.40;99.90;;;;;;20866527;28;20048;-77
2022/01/18 05:33:01;;;;;;;10.50;5.50;;;0.40;99.90;;;;;;20840215;28;20111;-77
2022/01/18 05:43:02;;;;;;;10.88;5.95;;;0.20;99.90;;;;;;20900813;28;20491;-77
2022/01/18 05:53:03;;;;;;;13.98;7.05;;;-0.30;99.90;;;;;;20842529;28;20395;-77
2022/01/18 06:03:12;;;;;;;13.05;7.57;;;-0.20;99.90;;;;;;20871011;23;20128;-76
2022/01/18 06:13:14;;;;;;;17.35;7.40;;;-0.10;99.90;;;;;;20911745;28;20032;-76
2022/01/18 06:23:15;;;;;;;13.15;7.38;;;-0.30;99.90;;;;;;20910969;28;20178;-75
2022/01/18 06:33:16;;;;;;;22.73;9.93;;;-0.40;99.90;;;;;;20911655;28;20052;-75
2022/01/18 06:43:17;;;;;;;20.67;10.25;;;-0.20;99.90;;;;;;20909736;28;20021;-75
2022/01/18 06:53:18;;;;;;;24.38;10.15;;;0.00;99.90;;;;;;20908817;28;20057;-75
2022/01/18 07:03:20;;;;;;;21.17;10.55;;;0.80;99.90;;;;;;20907859;28;20068;-75
2022/01/18 07:13:20;;;;;;;27.52;13.23;;;1.00;99.90;;;;;;20907628;28;20037;-75
2022/01/18 07:23:22;;;;;;;27.08;14.13;;;0.60;99.90;;;;;;20922925;28;20047;-75
2022/01/18 07:33:23;;;;;;;19.25;10.52;;;0.30;99.90;;;;;;20925159;28;20039;-76
2022/01/18 07:43:24;;;;;;;17.48;8.88;;;0.60;99.90;;;;;;20968310;28;20036;-76
2022/01/18 07:53:25;;;;;;;22.13;10.77;;;0.80;99.90;;;;;;20935340;28;20060;-76
2022/01/18 08:03:28;;;;;;;20.70;9.00;;;0.80;99.90;;;;;;20901753;28;20108;-75
2022/01/18 08:13:37;;;;;;;17.70;10.15;;;0.80;99.90;;;;;;20870195;28;20028;-75
2022/01/18 08:23:37;;;;;;;21.20;9.93;;;0.90;99.90;;;;;;20921668;28;20036;-75
2022/01/18 08:33:38;;;;;;;31.80;15.98;;;1.10;99.90;;;;;;20900004;28;20033;-76
2022/01/18 08:43:39;;;;;;;21.85;11.30;;;1.10;99.90;;;;;;20898636;28;20439;-75
2022/01/18 08:53:41;;;;;;;21.25;10.52;;;1.40;99.90;;;;;;20885973;28;20087;-75
2022/01/18 09:03:43;;;;;;;21.05;10.70;;;1.80;99.90;;;;;;20821261;28;20062;-75
2022/01/18 09:13:44;;;;;;;16.88;9.27;;;2.00;99.90;;;;;;20947515;28;20029;-75
2022/01/18 09:23:45;;;;;;;17.20;8.85;;;2.20;99.90;;;;;;20946332;28;20580;-75
2022/01/18 09:33:46;;;;;;;18.67;8.88;;;2.40;99.90;;;;;;20919113;28;20033;-75
2022/01/18 09:43:46;;;;;;;15.75;8.20;;;2.60;99.90;;;;;;20917611;28;20039;-75
2022/01/18 09:53:47;;;;;;;12.85;7.45;;;2.70;99.90;;;;;;20847336;28;20033;-75
2022/01/18 10:03:48;;;;;;;15.75;7.85;;;2.90;99.90;;;;;;20813823;28;20040;-76
2022/01/18 10:13:49;;;;;;;13.63;7.70;;;3.00;99.90;;;;;;20891134;28;20055;-76
2022/01/18 10:23:51;;;;;;;9.90;5.93;;;3.10;99.90;;;;;;20867402;28;20037;-76
2022/01/18 10:34:12;;;;;;;10.65;6.22;;;3.40;99.90;;;;;;20833363;28;20039;-76
2022/01/18 10:44:15;;;;;;;8.07;5.00;;;3.50;99.90;;;;;;20889300;28;20048;-75
2022/01/18 10:54:16;;;;;;;10.35;5.25;;;3.70;99.90;;;;;;20888877;28;20032;-75
2022/01/18 11:04:17;;;;;;;;;;;3.80;99.90;;;;;;20888081;28;20091;-76
2022/01/18 11:14:21;;;;;;;12.17;5.03;;;4.00;99.90;;;;;;20828051;28;20260;-76
2022/01/18 11:24:22;;;;;;;8.38;4.10;;;4.10;99.90;;;;;;20830918;28;20708;-76
2022/01/18 11:34:27;;;;;;;;;;;4.20;99.90;;;;;;20841986;28;20057;-75
2022/01/18 11:44:29;;;;;;;9.88;4.63;;;4.30;99.90;;;;;;20839910;28;19920;-74
2022/01/18 11:54:42;;;;;;;8.63;4.57;;;4.50;99.90;;;;;;20839982;28;20036;-74
2022/01/18 12:04:49;;;;;;;10.68;6.22;;;4.50;99.90;;;;;;20862161;23;20049;-77
2022/01/18 12:14:50;;;;;;;17.80;8.15;;;4.60;99.90;;;;;;20791961;28;20030;-76
2022/01/18 12:25:26;;;;;;;15.82;7.63;;;4.70;99.90;;;;;;20755743;28;20042;-76
2022/01/18 12:35:28;;;;;;;13.80;7.18;;;4.80;99.90;;;;;;20754873;28;20033;-76
2022/01/18 12:45:34;;;;;;;10.93;6.07;;;5.10;99.90;;;;;;20754575;28;20034;-76
2022/01/18 12:55:50;;;;;;;9.85;5.30;;;5.10;99.90;;;;;;20753459;28;20554;-76
2022/01/18 13:05:53;;;;;;;8.15;4.55;;;5.00;99.90;;;;;;20752494;28;20034;-77
2022/01/18 13:26:02;;;;;;;8.10;4.22;;;5.00;99.90;;;;;;20751306;28;20030;-76
2022/01/18 13:36:04;;;;;;;9.10;4.35;;;5.00;99.90;;;;;;20750812;28;20026;-77
2022/01/18 13:46:05;;;;;;;6.60;3.72;;;5.00;99.90;;;;;;20747539;28;20044;-76
2022/01/18 13:56:17;;;;;;;6.93;3.25;;;5.20;99.90;;;;;;20748888;28;20034;-76
2022/01/18 14:06:20;;;;;;;6.60;3.55;;;5.20;99.90;;;;;;20760487;28;20025;-76
2022/01/18 14:16:32;;;;;;;6.32;3.17;;;5.20;99.90;;;;;;20785590;28;20423;-76
2022/01/18 14:26:35;;;;;;;6.30;2.95;;;5.20;99.90;;;;;;20746471;28;20048;-77
2022/01/18 14:36:49;;;;;;;6.28;3.67;;;5.30;99.90;;;;;;20745894;28;20034;-76
2022/01/18 14:47:24;;;;;;;13.15;3.72;;;5.40;99.90;;;;;;20744982;28;20116;-76
2022/01/18 14:57:20;;;;;;;5.38;3.60;;;5.10;99.90;;;;;;20744436;28;20156;-76
2022/01/18 15:07:22;;;;;;;11.70;4.70;;;5.00;99.90;;;;;;20743848;28;20104;-76
2022/01/18 15:17:23;;;;;;;9.63;4.88;;;4.70;99.90;;;;;;20743669;28;20087;-76
2022/01/18 15:27:24;;;;;;;;;;;4.50;99.90;;;;;;20742009;28;20030;-76
2022/01/18 15:37:24;;;;;;;8.43;4.60;;;4.50;99.90;;;;;;20739815;28;20000;-76
2022/01/18 15:47:25;;;;;;;;;;;4.50;99.90;;;;;;20741101;28;20038;-76
2022/01/18 15:57:26;;;;;;;18.65;7.30;;;4.40;99.90;;;;;;20741645;28;20291;-75
2022/01/18 16:07:27;;;;;;;;;;;4.40;99.90;;;;;;20787676;28;20029;-76
2022/01/18 16:17:28;;;;;;;12.68;6.85;;;4.40;99.90;;;;;;20753662;28;19959;-76
2022/01/18 16:27:29;;;;;;;10.43;5.97;;;4.50;99.90;;;;;;20754163;28;20033;-76
2022/01/18 16:37:31;;;;;;;10.80;6.25;;;4.50;99.90;;;;;;20753694;28;20039;-76
2022/01/18 16:47:32;;;;;;;9.48;5.32;;;4.40;99.90;;;;;;20754208;28;20117;-76
2022/01/18 16:57:33;;;;;;;;;;;4.40;99.90;;;;;;20753775;28;20030;-76
2022/01/18 17:07:35;;;;;;;7.80;4.80;;;4.30;99.90;;;;;;20764339;28;19913;-76
2022/01/18 17:17:36;;;;;;;8.20;4.43;;;4.20;99.90;;;;;;20791310;28;20045;-76
2022/01/18 17:27:36;;;;;;;;;;;4.10;99.90;;;;;;20831597;28;20033;-76
2022/01/18 17:37:37;;;;;;;8.80;5.20;;;4.10;99.90;;;;;;20832994;28;19913;-75
2022/01/18 17:47:38;;;;;;;10.32;5.38;;;4.20;99.90;;;;;;20831024;28;20381;-75
2022/01/18 17:57:40;;;;;;;;;;;4.10;99.90;;;;;;20830931;28;20030;-75
2022/01/18 18:07:41;;;;;;;12.77;5.30;;;4.10;99.90;;;;;;20841971;22;19966;-74
2022/01/18 18:17:41;;;;;;;;;;;4.00;99.90;;;;;;20772984;28;20424;-74
2022/01/18 18:27:42;;;;;;;9.63;5.13;;;4.10;99.90;;;;;;20707962;28;19917;-74
2022/01/18 18:37:43;;;;;;;;;;;4.00;99.90;;;;;;20706982;28;20293;-76
2022/01/18 18:47:45;;;;;;;11.02;5.32;;;4.00;99.90;;;;;;20716972;28;19929;-74
2022/01/18 19:07:52;;;;;;;10.80;5.35;;;3.90;99.90;;;;;;20705255;28;20034;-74
2022/01/18 19:17:52;;;;;;;;;;;3.80;99.90;;;;;;20750460;28;20033;-75
2022/01/18 19:27:55;;;;;;;14.52;5.55;;;3.80;99.90;;;;;;20756915;28;19920;-74
2022/01/18 19:37:56;;;;;;;15.45;6.68;;;3.80;99.90;;;;;;20757904;28;20558;-74
2022/01/18 19:47:59;;;;;;;9.88;5.30;;;3.80;99.90;;;;;;20752091;28;20408;-73
2022/01/18 19:58:09;;;;;;;12.77;6.22;;;3.70;99.90;;;;;;20756846;28;20038;-73
2022/01/18 20:08:13;;;;;;;8.67;4.90;;;3.70;99.90;;;;;;20757152;28;20475;-73
2022/01/18 20:18:15;;;;;;;11.02;5.35;;;3.70;99.90;;;;;;20763306;28;20049;-74
2022/01/18 20:28:16;;;;;;;16.67;5.75;;;3.60;99.90;;;;;;20801692;28;20041;-74
2022/01/18 20:38:17;;;;;;;8.68;4.80;;;3.60;99.90;;;;;;20832261;28;20030;-74
2022/01/18 20:48:17;;;;;;;;;;;3.50;99.90;;;;;;20828947;28;20030;-74
2022/01/18 20:58:20;;;;;;;10.80;5.30;;;3.50;99.90;;;;;;20833151;28;19916;-74
2022/01/18 21:08:20;;;;;;;13.40;6.25;;;3.40;99.90;;;;;;20806133;28;20044;-74
2022/01/18 21:18:21;;;;;;;10.27;5.82;;;3.40;99.90;;;;;;20749581;28;20030;-75
2022/01/18 21:28:22;;;;;;;;;;;3.40;99.90;;;;;;20749321;28;20041;-75
2022/01/18 21:38:23;;;;;;;15.45;7.45;;;3.40;99.90;;;;;;20765493;28;20360;-75
2022/01/18 21:48:24;;;;;;;14.68;6.85;;;3.30;99.90;;;;;;20749533;28;20037;-75
2022/01/18 21:58:25;;;;;;;;;;;3.30;99.90;;;;;;20774816;28;20037;-75
2022/01/18 22:08:25;;;;;;;12.15;6.63;;;3.30;99.90;;;;;;20799221;28;20008;-74
2022/01/18 22:18:27;;;;;;;;;;;3.30;99.90;;;;;;20783348;28;20500;-75
2022/01/18 22:28:27;;;;;;;18.20;8.48;;;3.30;99.90;;;;;;20783840;28;19913;-75
2022/01/18 22:38:28;;;;;;;;;;;3.20;99.90;;;;;;20784364;28;20060;-75
2022/01/18 22:48:29;;;;;;;19.23;8.53;;;3.20;99.90;;;;;;20784073;28;19916;-74
2022/01/18 22:58:30;;;;;;;;;;;3.20;99.90;;;;;;20783820;28;20272;-74
2022/01/18 23:08:30;;;;;;;17.03;7.63;;;3.10;99.90;;;;;;20782820;28;20307;-74
2022/01/18 23:18:31;;;;;;;;;;;3.10;99.90;;;;;;20786194;28;20330;-75
2022/01/18 23:28:32;;;;;;;26.73;8.03;;;3.00;99.90;;;;;;20720116;28;19985;-75
2022/01/18 23:38:39;;;;;;;;;;;3.00;99.90;;;;;;20782182;28;20283;-75
2022/01/18 23:48:40;;;;;;;20.58;8.27;;;3.00;99.90;;;;;;20781581;28;20367;-75
2022/01/18 23:58:41;;;;;;;14.88;6.90;;;3.00;99.90;;;;;;20781067;28;20365;-75
